Time;durP1;ratioP1;P1;durP2;ratioP2;P2;SDS_P1;SDS_P2;PMS_P1;PMS_P2;Temp;Humidity;BMP_temperature;BMP_pressure;BME280_temperature;BME280_humidity;BME280_pressure;Samples;Min_cycle;Max_cycle;Signal;HPM_P1;HPM_P2
2023/08/19 00:00:22;;;;;;;4.80;3.38;;;;;;;;;;4931825;29;20055;-83
2023/08/19 00:02:52;;;;;;;6.05;3.83;;;;;;;;;;4932345;29;20054;-84
2023/08/19 00:05:20;;;;;;;14.68;5.68;;;;;;;;;;4901328;29;20476;-84
2023/08/19 00:07:51;;;;;;;3.90;2.90;;;;;;;;;;4924911;29;20063;-84
2023/08/19 00:10:19;;;;;;;5.85;3.45;;;;;;;;;;4919382;29;20052;-84
2023/08/19 00:12:46;;;;;;;4.57;3.45;;;;;;;;;;4933138;29;20050;-84
2023/08/19 00:15:16;;;;;;;3.80;3.33;;;;;;;;;;4905977;29;20052;-83
2023/08/19 00:17:47;;;;;;;7.10;4.00;;;;;;;;;;4916716;29;20058;-84
2023/08/19 00:20:16;;;;;;;5.90;3.42;;;;;;;;;;4916262;29;20428;-84
2023/08/19 00:22:44;;;;;;;13.40;3.78;;;;;;;;;;4899783;29;20051;-83
2023/08/19 00:25:11;;;;;;;7.00;3.80;;;;;;;;;;4933049;29;20054;-84
2023/08/19 00:27:38;;;;;;;4.97;3.60;;;;;;;;;;4900576;29;20432;-84
2023/08/19 00:30:09;;;;;;;5.55;4.00;;;;;;;;;;4904124;29;20058;-84
2023/08/19 00:32:40;;;;;;;6.25;3.35;;;;;;;;;;4900609;29;20047;-84
2023/08/19 00:35:09;;;;;;;6.65;3.88;;;;;;;;;;4920063;29;20408;-84
2023/08/19 00:37:39;;;;;;;5.60;3.00;;;;;;;;;;4908234;29;20060;-83
2023/08/19 00:40:09;;;;;;;7.93;4.18;;;;;;;;;;4905778;29;20299;-83
2023/08/19 00:42:39;;;;;;;4.18;2.92;;;;;;;;;;4921168;29;20059;-84
2023/08/19 00:45:07;;;;;;;3.92;3.10;;;;;;;;;;4922042;29;20392;-83
2023/08/19 00:47:36;;;;;;;8.68;4.15;;;;;;;;;;4937535;29;20051;-84
2023/08/19 00:50:06;;;;;;;12.00;4.32;;;;;;;;;;4923223;29;20050;-84
2023/08/19 00:52:35;;;;;;;4.10;3.22;;;;;;;;;;4922472;29;20056;-84
2023/08/19 00:55:04;;;;;;;5.47;3.47;;;;;;;;;;4905949;29;20387;-83
2023/08/19 00:57:35;;;;;;;5.70;4.10;;;;;;;;;;4921912;29;20052;-84
2023/08/19 01:00:06;;;;;;;5.57;3.90;;;;;;;;;;4923175;29;20039;-84
2023/08/19 01:02:36;;;;;;;6.20;3.53;;;;;;;;;;4907744;29;20048;-84
2023/08/19 01:05:06;;;;;;;4.30;3.38;;;;;;;;;;4921267;29;20047;-84
2023/08/19 01:07:39;;;;;;;9.82;4.13;;;;;;;;;;4921996;29;20051;-84
2023/08/19 01:10:11;;;;;;;9.05;4.18;;;;;;;;;;4922954;29;20043;-83
2023/08/19 01:12:43;;;;;;;10.73;5.00;;;;;;;;;;4921768;29;20056;-84
2023/08/19 01:15:17;;;;;;;4.00;3.60;;;;;;;;;;4936174;29;20051;-83
2023/08/19 01:17:47;;;;;;;5.90;4.28;;;;;;;;;;4922309;29;20074;-84
2023/08/19 01:20:16;;;;;;;6.53;3.35;;;;;;;;;;4922876;29;20056;-84
2023/08/19 01:22:56;;;;;;;6.90;3.35;;;;;;;;;;4922857;29;20047;-84
2023/08/19 01:25:26;;;;;;;12.13;4.20;;;;;;;;;;4919671;29;20056;-83
2023/08/19 01:27:55;;;;;;;7.03;3.58;;;;;;;;;;4931696;29;20052;-84
2023/08/19 01:30:23;;;;;;;12.07;4.03;;;;;;;;;;4906876;29;20052;-84
2023/08/19 01:32:53;;;;;;;6.15;4.18;;;;;;;;;;4928593;29;20051;-84
2023/08/19 01:35:23;;;;;;;8.00;3.70;;;;;;;;;;4921080;29;20488;-84
2023/08/19 01:38:00;;;;;;;7.13;3.60;;;;;;;;;;4921740;29;20052;-84
2023/08/19 01:40:28;;;;;;;12.75;3.60;;;;;;;;;;4906860;29;20419;-84
2023/08/19 01:42:57;;;;;;;6.53;5.55;;;;;;;;;;4921428;29;20539;-84
2023/08/19 01:45:24;;;;;;;5.53;2.92;;;;;;;;;;4928064;28;20039;-84
2023/08/19 01:47:53;;;;;;;6.25;3.65;;;;;;;;;;4934072;29;20048;-84
2023/08/19 01:50:20;;;;;;;4.90;3.95;;;;;;;;;;4919724;29;20440;-84
2023/08/19 01:52:48;;;;;;;8.43;3.33;;;;;;;;;;4906052;29;20047;-84
2023/08/19 01:55:20;;;;;;;9.37;3.73;;;;;;;;;;4918476;29;20054;-84
2023/08/19 01:57:55;;;;;;;9.70;3.42;;;;;;;;;;4902411;29;20066;-84
2023/08/19 02:00:25;;;;;;;8.35;3.42;;;;;;;;;;4918584;29;20456;-84
2023/08/19 02:02:54;;;;;;;4.30;3.60;;;;;;;;;;4917797;29;20059;-84
2023/08/19 02:05:22;;;;;;;6.70;3.75;;;;;;;;;;4919306;29;20489;-84
2023/08/19 02:07:54;;;;;;;4.83;3.43;;;;;;;;;;4917953;29;20066;-84
2023/08/19 02:10:23;;;;;;;8.20;3.53;;;;;;;;;;4919228;29;20051;-83
2023/08/19 02:12:55;;;;;;;6.68;3.80;;;;;;;;;;4918356;29;20044;-83
2023/08/19 02:15:22;;;;;;;5.88;3.42;;;;;;;;;;4919145;29;20055;-84
2023/08/19 02:17:49;;;;;;;7.60;4.05;;;;;;;;;;4917081;29;20408;-84
2023/08/19 02:20:16;;;;;;;4.32;3.00;;;;;;;;;;4918149;29;20075;-83
2023/08/19 02:22:46;;;;;;;6.70;4.28;;;;;;;;;;4922490;29;20496;-83
2023/08/19 02:25:15;;;;;;;4.78;3.85;;;;;;;;;;4903039;29;20415;-84
2023/08/19 02:27:43;;;;;;;6.95;4.03;;;;;;;;;;4901485;29;20507;-84
2023/08/19 02:30:13;;;;;;;6.00;3.53;;;;;;;;;;4901887;29;20051;-84
2023/08/19 02:32:40;;;;;;;6.75;3.10;;;;;;;;;;4902482;29;20056;-84
2023/08/19 02:35:08;;;;;;;4.28;3.58;;;;;;;;;;4903021;29;20397;-84
2023/08/19 02:37:38;;;;;;;7.43;3.83;;;;;;;;;;4901350;29;20052;-84
2023/08/19 02:40:07;;;;;;;8.90;3.97;;;;;;;;;;4921265;29;20060;-83
2023/08/19 02:42:34;;;;;;;6.55;3.75;;;;;;;;;;4905187;29;20415;-84
2023/08/19 02:45:02;;;;;;;7.47;3.28;;;;;;;;;;4934303;29;20043;-83
2023/08/19 02:47:32;;;;;;;4.82;3.97;;;;;;;;;;4917523;29;20048;-84
2023/08/19 02:50:01;;;;;;;4.63;3.72;;;;;;;;;;4915897;29;20262;-84
2023/08/19 02:52:29;;;;;;;5.13;3.70;;;;;;;;;;4917926;29;20514;-84
2023/08/19 02:54:59;;;;;;;11.48;4.32;;;;;;;;;;4902548;29;20062;-84
2023/08/19 02:57:29;;;;;;;5.18;3.45;;;;;;;;;;4901323;29;20051;-84
2023/08/19 02:59:59;;;;;;;6.38;3.35;;;;;;;;;;4900706;29;20067;-84
2023/08/19 03:02:26;;;;;;;6.80;3.63;;;;;;;;;;4919109;29;20413;-84
2023/08/19 03:04:58;;;;;;;4.78;3.60;;;;;;;;;;4902254;29;20056;-84
2023/08/19 03:07:28;;;;;;;7.22;3.78;;;;;;;;;;4902140;29;20047;-84
2023/08/19 03:09:55;;;;;;;6.32;4.22;;;;;;;;;;4916196;29;20067;-84
2023/08/19 03:12:23;;;;;;;3.97;3.00;;;;;;;;;;4917343;29;20047;-84
2023/08/19 03:14:52;;;;;;;3.95;3.22;;;;;;;;;;4906925;29;20066;-84
2023/08/19 03:17:20;;;;;;;8.65;4.53;;;;;;;;;;4917598;29;20051;-83
2023/08/19 03:19:50;;;;;;;4.47;3.42;;;;;;;;;;4900775;29;20099;-83
2023/08/19 03:22:19;;;;;;;5.38;3.65;;;;;;;;;;4901796;29;20047;-84
2023/08/19 03:24:46;;;;;;;7.38;3.42;;;;;;;;;;4917727;29;20070;-84
2023/08/19 03:27:13;;;;;;;7.63;3.78;;;;;;;;;;4901227;29;20052;-84
2023/08/19 03:29:43;;;;;;;6.57;3.53;;;;;;;;;;4901915;29;20051;-84
2023/08/19 03:32:10;;;;;;;5.57;4.13;;;;;;;;;;4916270;29;20063;-84
2023/08/19 03:34:38;;;;;;;6.63;5.07;;;;;;;;;;4916780;29;20051;-84
2023/08/19 03:37:08;;;;;;;6.20;4.10;;;;;;;;;;4894053;29;20051;-84
2023/08/19 03:39:39;;;;;;;11.70;3.50;;;;;;;;;;4922768;29;20058;-84
2023/08/19 03:42:08;;;;;;;5.47;3.75;;;;;;;;;;4893583;29;20061;-84
2023/08/19 03:44:38;;;;;;;5.20;4.15;;;;;;;;;;4947763;29;20056;-84
2023/08/19 03:47:10;;;;;;;6.43;4.57;;;;;;;;;;4909545;29;20058;-84
2023/08/19 03:49:38;;;;;;;7.38;4.07;;;;;;;;;;4901065;29;20059;-84
2023/08/19 03:52:06;;;;;;;5.60;3.78;;;;;;;;;;4900695;29;20055;-84
2023/08/19 03:54:35;;;;;;;7.55;3.67;;;;;;;;;;4931059;29;20073;-84
2023/08/19 03:57:06;;;;;;;6.13;3.88;;;;;;;;;;4916084;29;20051;-83
2023/08/19 03:59:33;;;;;;;5.78;3.83;;;;;;;;;;4917481;29;20051;-84
2023/08/19 04:02:04;;;;;;;4.70;3.95;;;;;;;;;;4922878;29;20524;-84
2023/08/19 04:04:31;;;;;;;6.07;3.47;;;;;;;;;;4899871;29;20601;-84
2023/08/19 04:07:02;;;;;;;4.75;3.30;;;;;;;;;;4932714;29;20388;-84
2023/08/19 04:09:29;;;;;;;7.72;3.22;;;;;;;;;;4900691;29;20522;-84
2023/08/19 04:11:56;;;;;;;11.80;3.63;;;;;;;;;;4899595;29;20062;-84
2023/08/19 04:14:27;;;;;;;7.90;3.33;;;;;;;;;;4898675;29;20066;-83
2023/08/19 04:16:57;;;;;;;5.30;3.80;;;;;;;;;;4916809;29;20050;-83
2023/08/19 04:19:24;;;;;;;7.50;4.15;;;;;;;;;;4916422;29;20044;-83
2023/08/19 04:21:55;;;;;;;4.68;3.60;;;;;;;;;;4899865;29;20509;-84
2023/08/19 04:24:25;;;;;;;5.38;4.40;;;;;;;;;;4915518;29;20530;-84
2023/08/19 04:26:58;;;;;;;4.20;3.70;;;;;;;;;;4915814;29;20074;-84
2023/08/19 04:29:27;;;;;;;3.78;3.22;;;;;;;;;;4922743;29;20054;-83
2023/08/19 04:31:59;;;;;;;12.23;4.57;;;;;;;;;;4917504;29;20059;-84
2023/08/19 04:34:30;;;;;;;7.32;3.97;;;;;;;;;;4916613;29;20531;-84
2023/08/19 04:37:00;;;;;;;5.75;3.90;;;;;;;;;;4899915;29;20043;-84
2023/08/19 04:39:27;;;;;;;5.93;3.42;;;;;;;;;;4901381;29;20047;-84
2023/08/19 04:41:59;;;;;;;7.47;3.47;;;;;;;;;;4898998;29;20518;-84
2023/08/19 04:44:29;;;;;;;4.15;3.00;;;;;;;;;;4932662;29;20050;-84
2023/08/19 04:46:59;;;;;;;8.68;3.63;;;;;;;;;;4912007;29;20408;-84
2023/08/19 04:49:28;;;;;;;9.63;3.50;;;;;;;;;;4907138;29;20056;-83
2023/08/19 04:52:00;;;;;;;5.40;4.10;;;;;;;;;;4916908;29;20058;-83
2023/08/19 04:54:27;;;;;;;6.15;3.80;;;;;;;;;;4949109;29;20303;-84
2023/08/19 04:56:54;;;;;;;8.00;4.15;;;;;;;;;;4914740;29;20040;-84
2023/08/19 04:59:25;;;;;;;8.15;3.65;;;;;;;;;;4946835;29;20062;-84
2023/08/19 05:01:54;;;;;;;7.68;3.50;;;;;;;;;;4940015;29;20040;-84
2023/08/19 05:04:21;;;;;;;5.20;3.70;;;;;;;;;;4900814;29;20056;-84
2023/08/19 05:06:51;;;;;;;5.15;3.75;;;;;;;;;;4899456;29;20055;-84
2023/08/19 05:09:19;;;;;;;6.72;3.30;;;;;;;;;;4909303;29;20060;-84
2023/08/19 05:11:46;;;;;;;3.85;3.05;;;;;;;;;;4929935;29;20067;-84
2023/08/19 05:14:14;;;;;;;8.80;4.18;;;;;;;;;;4929962;29;20043;-84
2023/08/19 05:16:44;;;;;;;5.78;3.50;;;;;;;;;;4916453;29;20055;-84
2023/08/19 05:19:18;;;;;;;9.07;3.78;;;;;;;;;;4953565;29;20031;-84
2023/08/19 05:21:48;;;;;;;6.45;4.05;;;;;;;;;;4942801;29;20039;-84
2023/08/19 05:24:20;;;;;;;8.15;3.25;;;;;;;;;;4974301;29;20028;-84
2023/08/19 05:26:48;;;;;;;6.30;3.10;;;;;;;;;;4927391;29;20066;-84
2023/08/19 05:29:16;;;;;;;4.28;3.63;;;;;;;;;;4913845;29;20047;-85
2023/08/19 05:31:45;;;;;;;5.50;3.70;;;;;;;;;;4914038;29;20415;-85
2023/08/19 05:34:19;;;;;;;8.10;3.43;;;;;;;;;;4937255;29;20051;-85
2023/08/19 05:36:47;;;;;;;3.72;2.72;;;;;;;;;;4907556;29;20815;-85
2023/08/19 05:39:14;;;;;;;6.15;3.00;;;;;;;;;;4902294;29;20051;-85
2023/08/19 05:41:41;;;;;;;4.78;3.00;;;;;;;;;;4944888;28;20052;-85
2023/08/19 05:44:09;;;;;;;8.32;3.38;;;;;;;;;;4902536;29;20299;-84
2023/08/19 05:46:38;;;;;;;3.45;2.78;;;;;;;;;;4934300;29;20048;-84
2023/08/19 05:49:08;;;;;;;6.50;2.80;;;;;;;;;;4917919;29;20526;-84
2023/08/19 05:51:37;;;;;;;3.58;2.45;;;;;;;;;;4919864;29;20063;-84
2023/08/19 05:54:06;;;;;;;5.13;2.80;;;;;;;;;;4936534;29;20431;-84
2023/08/19 05:56:36;;;;;;;4.70;2.33;;;;;;;;;;4901455;29;20079;-84
2023/08/19 05:59:03;;;;;;;3.45;2.63;;;;;;;;;;4933526;29;20052;-84
2023/08/19 06:01:31;;;;;;;3.88;2.80;;;;;;;;;;4931178;29;20051;-84
2023/08/19 06:03:58;;;;;;;5.28;2.78;;;;;;;;;;4925437;29;20062;-84
2023/08/19 06:06:28;;;;;;;4.43;2.22;;;;;;;;;;4931989;29;20054;-84
2023/08/19 06:08:58;;;;;;;5.20;2.85;;;;;;;;;;4914863;29;20059;-84
2023/08/19 06:11:26;;;;;;;8.15;2.78;;;;;;;;;;4932990;29;20055;-84
2023/08/19 06:13:55;;;;;;;6.45;2.65;;;;;;;;;;4934313;29;20055;-84
2023/08/19 06:16:27;;;;;;;5.00;3.10;;;;;;;;;;4928075;29;20051;-84
2023/08/19 06:18:57;;;;;;;5.13;3.00;;;;;;;;;;4916195;29;20314;-84
2023/08/19 06:21:26;;;;;;;3.72;2.38;;;;;;;;;;4934310;29;20052;-84
2023/08/19 06:23:56;;;;;;;6.40;3.03;;;;;;;;;;4921635;29;20067;-84
2023/08/19 06:26:32;;;;;;;8.05;2.95;;;;;;;;;;4920574;29;20051;-84
2023/08/19 06:28:59;;;;;;;5.07;2.92;;;;;;;;;;4927072;29;20063;-84
2023/08/19 06:31:34;;;;;;;2.60;2.28;;;;;;;;;;4915586;29;20043;-84
2023/08/19 06:34:04;;;;;;;3.30;2.53;;;;;;;;;;4930101;29;20054;-85
2023/08/19 06:36:33;;;;;;;4.70;2.60;;;;;;;;;;4934922;29;20527;-84
2023/08/19 06:39:05;;;;;;;2.95;2.75;;;;;;;;;;4934147;29;20055;-84
2023/08/19 06:41:36;;;;;;;;;;;;;;;;;;4931438;29;20055;-84
2023/08/19 06:44:08;;;;;;;3.50;2.67;;;;;;;;;;4915800;29;19926;-85
2023/08/19 06:46:42;;;;;;;7.45;2.75;;;;;;;;;;4911317;29;20443;-84
2023/08/19 06:49:14;;;;;;;5.28;2.58;;;;;;;;;;4929976;29;20051;-84
2023/08/19 06:51:45;;;;;;;4.32;2.58;;;;;;;;;;4934013;29;20062;-84
2023/08/19 06:54:16;;;;;;;8.80;2.78;;;;;;;;;;4911116;29;20149;-84
2023/08/19 06:56:49;;;;;;;6.00;2.67;;;;;;;;;;4935649;29;20047;-86
2023/08/19 06:59:21;;;;;;;3.38;2.83;;;;;;;;;;4929946;29;20253;-86
2023/08/19 07:01:52;;;;;;;4.97;3.53;;;;;;;;;;4932959;29;20056;-85
2023/08/19 07:04:23;;;;;;;2.40;2.20;;;;;;;;;;4944793;28;20054;-86
2023/08/19 07:06:53;;;;;;;2.75;2.50;;;;;;;;;;4916115;29;20518;-85
2023/08/19 07:09:23;;;;;;;4.70;2.47;;;;;;;;;;4936117;29;20051;-85
2023/08/19 07:11:55;;;;;;;3.58;2.92;;;;;;;;;;4929199;29;20059;-86
2023/08/19 07:14:23;;;;;;;4.72;3.85;;;;;;;;;;4937595;29;20039;-86
2023/08/19 07:16:54;;;;;;;3.13;2.42;;;;;;;;;;4939875;29;20059;-85
2023/08/19 07:19:28;;;;;;;3.97;2.83;;;;;;;;;;4919926;29;20054;-85
2023/08/19 07:21:56;;;;;;;2.55;2.35;;;;;;;;;;4923616;29;20515;-86
2023/08/19 07:24:24;;;;;;;4.63;3.17;;;;;;;;;;4933819;29;20062;-86
2023/08/19 07:26:51;;;;;;;5.22;3.05;;;;;;;;;;4935114;29;20059;-86
2023/08/19 07:29:23;;;;;;;4.65;3.05;;;;;;;;;;4932413;29;20502;-83
2023/08/19 07:31:52;;;;;;;4.13;2.30;;;;;;;;;;4907814;29;20056;-83
2023/08/19 07:34:22;;;;;;;3.10;2.40;;;;;;;;;;4926363;29;20051;-83
2023/08/19 07:36:49;;;;;;;10.57;2.88;;;;;;;;;;4929466;29;20519;-84
2023/08/19 07:39:17;;;;;;;5.47;2.90;;;;;;;;;;4916640;29;20078;-83
2023/08/19 07:41:44;;;;;;;4.05;3.58;;;;;;;;;;4936304;29;20066;-83
2023/08/19 07:44:11;;;;;;;4.60;2.70;;;;;;;;;;4935334;29;20052;-84
2023/08/19 07:46:45;;;;;;;2.58;2.25;;;;;;;;;;4918710;29;20063;-84
2023/08/19 07:49:15;;;;;;;4.70;2.78;;;;;;;;;;4917044;29;20051;-84
2023/08/19 07:51:45;;;;;;;4.60;2.95;;;;;;;;;;4918821;29;20062;-84
2023/08/19 07:54:12;;;;;;;3.88;2.60;;;;;;;;;;4900983;29;20048;-84
2023/08/19 07:56:39;;;;;;;2.83;2.60;;;;;;;;;;4934977;29;20060;-84
2023/08/19 07:59:07;;;;;;;3.42;2.60;;;;;;;;;;4933507;29;20039;-84
2023/08/19 08:01:39;;;;;;;;;;;;;;;;;;4919029;29;20062;-84
2023/08/19 08:04:07;;;;;;;3.10;2.80;;;;;;;;;;4934017;29;20310;-84
2023/08/19 08:06:37;;;;;;;5.18;2.85;;;;;;;;;;4933863;29;20051;-84
2023/08/19 08:09:05;;;;;;;2.97;2.65;;;;;;;;;;4916916;29;20059;-84
2023/08/19 08:11:32;;;;;;;5.25;2.92;;;;;;;;;;4908934;29;20056;-84
2023/08/19 08:14:01;;;;;;;3.58;3.05;;;;;;;;;;4935520;29;20833;-84
2023/08/19 08:16:31;;;;;;;4.35;2.33;;;;;;;;;;4916626;29;20078;-84
2023/08/19 08:19:01;;;;;;;4.32;2.30;;;;;;;;;;4930742;29;20059;-83
2023/08/19 08:21:32;;;;;;;2.72;2.53;;;;;;;;;;4919800;29;20059;-84
2023/08/19 08:23:59;;;;;;;2.80;2.60;;;;;;;;;;4921274;29;20048;-84
2023/08/19 08:26:28;;;;;;;4.10;2.30;;;;;;;;;;4916886;29;20056;-84
2023/08/19 08:28:56;;;;;;;3.67;2.97;;;;;;;;;;4916736;29;20052;-84
2023/08/19 08:31:25;;;;;;;7.68;3.55;;;;;;;;;;4932370;29;20048;-84
2023/08/19 08:33:55;;;;;;;4.82;2.17;;;;;;;;;;4911109;29;20063;-83
2023/08/19 08:36:25;;;;;;;2.67;2.35;;;;;;;;;;4920010;29;20056;-83
2023/08/19 08:38:56;;;;;;;4.55;3.03;;;;;;;;;;4933149;29;20048;-85
2023/08/19 08:41:23;;;;;;;6.75;3.53;;;;;;;;;;4933750;29;20047;-84
2023/08/19 08:43:51;;;;;;;3.58;2.70;;;;;;;;;;4918565;29;20070;-85
2023/08/19 08:46:20;;;;;;;4.10;3.03;;;;;;;;;;4916248;29;20056;-84
2023/08/19 08:48:50;;;;;;;4.00;2.88;;;;;;;;;;4934411;29;20044;-84
2023/08/19 08:51:20;;;;;;;5.15;3.10;;;;;;;;;;4914171;29;20056;-83
2023/08/19 08:53:48;;;;;;;3.50;2.92;;;;;;;;;;4935185;29;20059;-83
2023/08/19 08:56:19;;;;;;;4.00;3.17;;;;;;;;;;4918451;29;20576;-83
2023/08/19 08:58:49;;;;;;;3.10;2.72;;;;;;;;;;4934682;29;20040;-83
2023/08/19 09:01:22;;;;;;;3.35;3.05;;;;;;;;;;4939158;29;20063;-83
2023/08/19 09:03:53;;;;;;;5.00;2.70;;;;;;;;;;4916475;29;20051;-84
2023/08/19 09:06:23;;;;;;;4.03;2.80;;;;;;;;;;4931786;29;20055;-83
2023/08/19 09:08:59;;;;;;;7.20;2.97;;;;;;;;;;4936192;29;20055;-83
2023/08/19 09:11:35;;;;;;;3.53;3.22;;;;;;;;;;4942830;29;20520;-83
2023/08/19 09:14:08;;;;;;;3.90;2.53;;;;;;;;;;4908024;29;20051;-84
2023/08/19 09:16:46;;;;;;;9.40;4.72;;;;;;;;;;4934670;29;20074;-83
2023/08/19 09:19:17;;;;;;;5.53;3.42;;;;;;;;;;4932568;29;20054;-83
2023/08/19 09:22:37;;;;;;;3.92;3.22;;;;;;;;;;4938411;29;20075;-84
2023/08/19 09:25:06;;;;;;;3.03;2.80;;;;;;;;;;4935847;29;20141;-84
2023/08/19 09:27:35;;;;;;;5.38;2.78;;;;;;;;;;4936800;29;20538;-84
2023/08/19 09:30:02;;;;;;;5.35;2.55;;;;;;;;;;4932025;29;20052;-83
2023/08/19 09:32:35;;;;;;;3.92;2.90;;;;;;;;;;4904081;29;20054;-83
2023/08/19 09:35:06;;;;;;;7.78;3.08;;;;;;;;;;4920012;29;20043;-83
2023/08/19 09:37:39;;;;;;;5.55;2.35;;;;;;;;;;4921891;29;20050;-83
2023/08/19 09:40:14;;;;;;;3.47;2.75;;;;;;;;;;4936712;29;20497;-83
2023/08/19 09:42:47;;;;;;;5.65;3.28;;;;;;;;;;4903345;29;20484;-84
2023/08/19 09:45:18;;;;;;;4.68;2.75;;;;;;;;;;4936402;29;20048;-84
2023/08/19 09:47:47;;;;;;;5.57;2.70;;;;;;;;;;4922213;29;20048;-83
2023/08/19 09:50:15;;;;;;;7.10;4.38;;;;;;;;;;4920109;29;20048;-83
2023/08/19 09:52:42;;;;;;;4.45;3.78;;;;;;;;;;4904728;29;20055;-83
2023/08/19 09:55:12;;;;;;;6.30;2.90;;;;;;;;;;4907555;29;20056;-83
2023/08/19 09:57:43;;;;;;;4.03;3.03;;;;;;;;;;4934416;29;20054;-83
2023/08/19 10:00:15;;;;;;;5.30;3.42;;;;;;;;;;4937458;29;20039;-83
2023/08/19 10:02:42;;;;;;;15.15;3.88;;;;;;;;;;4935631;29;20398;-84
2023/08/19 10:05:09;;;;;;;5.25;3.70;;;;;;;;;;4921388;29;20055;-83
2023/08/19 10:07:40;;;;;;;3.35;2.58;;;;;;;;;;4900677;29;20051;-83
2023/08/19 10:10:09;;;;;;;5.75;3.55;;;;;;;;;;4945575;29;20385;-83
2023/08/19 10:12:41;;;;;;;4.63;3.38;;;;;;;;;;4938738;28;20051;-83
2023/08/19 10:15:13;;;;;;;4.90;3.58;;;;;;;;;;4917220;29;20060;-83
2023/08/19 10:17:48;;;;;;;4.70;3.42;;;;;;;;;;4952244;28;20399;-83
2023/08/19 10:20:20;;;;;;;3.55;3.25;;;;;;;;;;4933447;29;20048;-83
2023/08/19 10:23:03;;;;;;;4.78;3.25;;;;;;;;;;4905390;29;20133;-84
2023/08/19 10:25:33;;;;;;;6.75;3.33;;;;;;;;;;4916328;29;20426;-83
2023/08/19 10:28:12;;;;;;;4.40;2.33;;;;;;;;;;4925932;29;20057;-83
2023/08/19 10:30:45;;;;;;;5.43;3.33;;;;;;;;;;4908669;29;20059;-83
2023/08/19 10:33:28;;;;;;;3.15;2.50;;;;;;;;;;4918982;29;20403;-83
2023/08/19 10:36:02;;;;;;;4.00;3.33;;;;;;;;;;4942699;29;20058;-83
2023/08/19 10:38:47;;;;;;;3.95;2.88;;;;;;;;;;4923683;29;20549;-83
2023/08/19 10:41:19;;;;;;;9.48;3.55;;;;;;;;;;4930268;29;20071;-83
2023/08/19 10:43:54;;;;;;;;;;;;;;;;;;4930712;29;20050;-83
2023/08/19 10:46:35;;;;;;;3.97;3.13;;;;;;;;;;4917330;29;19931;-83
2023/08/19 10:49:05;;;;;;;4.20;2.77;;;;;;;;;;4938727;29;20051;-83
2023/08/19 10:51:47;;;;;;;5.38;4.30;;;;;;;;;;4916894;29;20392;-83
2023/08/19 10:54:14;;;;;;;3.60;3.20;;;;;;;;;;4935182;29;20048;-83
2023/08/19 10:56:52;;;;;;;3.60;3.08;;;;;;;;;;4918188;29;20048;-83
2023/08/19 10:59:20;;;;;;;5.63;3.88;;;;;;;;;;4919178;29;20054;-83
2023/08/19 11:01:48;;;;;;;4.25;2.85;;;;;;;;;;4916915;29;20040;-83
2023/08/19 11:04:19;;;;;;;4.40;2.70;;;;;;;;;;4905334;29;20052;-83
2023/08/19 11:06:52;;;;;;;5.72;3.63;;;;;;;;;;4917998;29;20054;-83
2023/08/19 11:09:19;;;;;;;3.78;3.10;;;;;;;;;;4921740;29;20051;-83
2023/08/19 11:11:47;;;;;;;3.45;3.15;;;;;;;;;;4916939;29;20930;-83
2023/08/19 11:14:16;;;;;;;6.00;3.50;;;;;;;;;;4932135;29;20416;-83
2023/08/19 11:16:48;;;;;;;5.30;3.33;;;;;;;;;;4903631;29;20516;-84
2023/08/19 11:19:19;;;;;;;8.60;3.47;;;;;;;;;;4948317;28;20048;-84
2023/08/19 11:21:51;;;;;;;4.70;3.42;;;;;;;;;;4926431;29;20062;-83
2023/08/19 11:24:20;;;;;;;7.20;3.05;;;;;;;;;;4937498;29;20056;-83
2023/08/19 11:26:50;;;;;;;3.83;3.50;;;;;;;;;;4901262;29;20068;-83
2023/08/19 11:29:17;;;;;;;6.40;3.60;;;;;;;;;;4933757;29;20040;-83
2023/08/19 11:31:44;;;;;;;7.45;3.60;;;;;;;;;;4966804;23;20055;-81
2023/08/19 11:34:15;;;;;;;9.60;3.90;;;;;;;;;;4916961;29;20051;-82
2023/08/19 11:36:45;;;;;;;5.95;4.95;;;;;;;;;;4901047;29;20059;-82
2023/08/19 11:39:12;;;;;;;7.38;4.05;;;;;;;;;;4906334;29;20440;-81
2023/08/19 11:41:40;;;;;;;3.47;3.17;;;;;;;;;;4894310;29;20052;-85
2023/08/19 11:44:16;;;;;;;3.88;3.33;;;;;;;;;;4913258;29;20273;-84
2023/08/19 11:46:54;;;;;;;6.55;3.80;;;;;;;;;;4930090;29;20070;-84
2023/08/19 11:49:29;;;;;;;5.22;3.80;;;;;;;;;;4930411;29;20059;-84
2023/08/19 11:51:59;;;;;;;3.90;3.50;;;;;;;;;;4916583;29;20058;-84
2023/08/19 11:54:26;;;;;;;6.85;4.20;;;;;;;;;;4904064;29;20055;-85
2023/08/19 11:56:59;;;;;;;5.60;3.40;;;;;;;;;;4924303;29;20063;-84
2023/08/19 11:59:30;;;;;;;5.63;3.75;;;;;;;;;;4900321;29;20052;-85
2023/08/19 12:02:04;;;;;;;4.53;4.05;;;;;;;;;;4932971;29;20050;-85
2023/08/19 12:04:34;;;;;;;5.80;3.67;;;;;;;;;;4929461;29;20047;-84
2023/08/19 12:07:04;;;;;;;4.90;4.40;;;;;;;;;;4933647;29;20047;-85
2023/08/19 12:09:32;;;;;;;7.22;4.18;;;;;;;;;;4911842;29;20047;-84
2023/08/19 12:12:02;;;;;;;4.32;3.92;;;;;;;;;;4899368;29;20052;-84
2023/08/19 12:14:30;;;;;;;6.13;4.30;;;;;;;;;;4899575;29;20070;-84
2023/08/19 12:16:59;;;;;;;6.60;3.97;;;;;;;;;;4915463;29;20515;-85
2023/08/19 12:19:29;;;;;;;5.85;4.43;;;;;;;;;;4902520;29;20539;-85
2023/08/19 12:21:57;;;;;;;4.95;3.83;;;;;;;;;;4930826;29;20055;-85
2023/08/19 12:24:25;;;;;;;5.07;4.57;;;;;;;;;;4916406;29;20063;-85
2023/08/19 12:26:52;;;;;;;4.50;4.10;;;;;;;;;;4915227;29;20051;-85
2023/08/19 12:29:24;;;;;;;;;;;;;;;;;;4920329;29;20504;-85
2023/08/19 12:31:53;;;;;;;4.35;3.95;;;;;;;;;;4915271;29;20298;-85
2023/08/19 12:34:23;;;;;;;7.35;4.20;;;;;;;;;;4936061;29;20046;-85
2023/08/19 12:36:50;;;;;;;5.53;4.57;;;;;;;;;;4914277;29;20062;-85
2023/08/19 12:39:22;;;;;;;6.55;4.35;;;;;;;;;;4936115;29;20062;-85
2023/08/19 12:41:49;;;;;;;5.50;4.78;;;;;;;;;;4916572;29;20522;-85
2023/08/19 12:44:21;;;;;;;;;;;;;;;;;;4935638;29;20051;-85
2023/08/19 12:46:49;;;;;;;5.95;4.32;;;;;;;;;;4913686;29;20383;-85
2023/08/19 12:49:16;;;;;;;6.32;4.30;;;;;;;;;;4901976;29;20504;-84
2023/08/19 12:51:43;;;;;;;5.50;4.40;;;;;;;;;;4897275;29;20072;-84
2023/08/19 12:54:16;;;;;;;;;;;;;;;;;;4896814;29;20064;-84
2023/08/19 12:56:47;;;;;;;6.72;4.38;;;;;;;;;;4898620;29;19931;-84
2023/08/19 12:59:16;;;;;;;4.15;3.72;;;;;;;;;;4915121;29;20056;-84
2023/08/19 13:01:46;;;;;;;4.53;4.10;;;;;;;;;;4900499;29;20052;-84
2023/08/19 13:04:16;;;;;;;7.10;4.85;;;;;;;;;;4917363;29;20504;-84
2023/08/19 13:06:58;;;;;;;8.05;4.22;;;;;;;;;;4930326;29;20448;-85
2023/08/19 13:09:53;;;;;;;6.05;4.43;;;;;;;;;;4926339;29;20051;-86
2023/08/19 13:12:22;;;;;;;4.78;4.07;;;;;;;;;;4937086;29;20052;-85
2023/08/19 13:14:49;;;;;;;5.15;4.40;;;;;;;;;;4918987;29;20055;-85
2023/08/19 13:17:34;;;;;;;6.88;4.50;;;;;;;;;;4908638;29;20399;-85
2023/08/19 13:23:06;;;;;;;5.18;4.38;;;;;;;;;;4902046;29;20071;-85
2023/08/19 13:32:25;;;;;;;8.73;4.22;;;;;;;;;;4857175;29;20061;-84
2023/08/19 13:34:52;;;;;;;6.60;3.63;;;;;;;;;;4864550;29;20861;-83
2023/08/19 13:37:20;;;;;;;6.90;4.30;;;;;;;;;;4849683;29;20052;-86
2023/08/19 13:39:48;;;;;;;4.40;4.00;;;;;;;;;;4894137;29;20139;-84
2023/08/19 13:42:15;;;;;;;6.65;3.95;;;;;;;;;;4875958;29;20065;-84
2023/08/19 13:45:07;;;;;;;5.90;5.03;;;;;;;;;;4868364;29;20052;-84
2023/08/19 13:48:26;;;;;;;8.38;4.93;;;;;;;;;;4871305;29;20545;-85
2023/08/19 13:51:49;;;;;;;4.85;4.38;;;;;;;;;;4848933;29;20045;-84
2023/08/19 13:54:32;;;;;;;10.35;5.05;;;;;;;;;;4782450;29;20066;-84
2023/08/19 13:57:04;;;;;;;5.55;4.45;;;;;;;;;;4796846;29;20054;-85
2023/08/19 13:59:33;;;;;;;5.57;5.07;;;;;;;;;;4841065;29;20058;-85
2023/08/19 14:02:02;;;;;;;7.28;4.70;;;;;;;;;;4917940;29;20404;-85
2023/08/19 14:04:29;;;;;;;6.05;5.40;;;;;;;;;;4918217;29;20059;-85
2023/08/19 14:06:57;;;;;;;6.03;4.63;;;;;;;;;;4916434;29;20056;-86
2023/08/19 14:09:24;;;;;;;5.93;5.10;;;;;;;;;;4938518;29;20055;-85
2023/08/19 14:11:54;;;;;;;7.00;4.45;;;;;;;;;;4915506;29;20058;-85
2023/08/19 14:14:37;;;;;;;5.15;4.57;;;;;;;;;;4936098;29;20424;-85
2023/08/19 14:17:08;;;;;;;7.40;5.30;;;;;;;;;;4930917;29;20063;-85
2023/08/19 14:19:40;;;;;;;11.15;5.07;;;;;;;;;;4939013;29;20059;-85
2023/08/19 14:22:07;;;;;;;8.75;4.82;;;;;;;;;;4934316;29;20051;-85
2023/08/19 14:24:38;;;;;;;6.38;4.85;;;;;;;;;;4940330;29;20411;-86
2023/08/19 14:27:06;;;;;;;7.05;5.15;;;;;;;;;;4916907;29;20039;-84
2023/08/19 14:29:37;;;;;;;7.70;4.70;;;;;;;;;;4941672;29;20051;-86
2023/08/19 14:32:05;;;;;;;11.55;5.85;;;;;;;;;;4933811;29;20048;-85
2023/08/19 14:34:34;;;;;;;7.40;4.47;;;;;;;;;;4900489;29;20511;-85
2023/08/19 14:37:02;;;;;;;9.80;5.82;;;;;;;;;;4916781;29;20051;-85
2023/08/19 14:39:30;;;;;;;6.22;5.00;;;;;;;;;;4918415;29;20063;-85
2023/08/19 14:41:57;;;;;;;10.60;5.75;;;;;;;;;;4935542;29;20036;-85
2023/08/19 14:44:24;;;;;;;9.00;5.55;;;;;;;;;;4918449;29;20051;-85
2023/08/19 14:46:54;;;;;;;7.65;5.50;;;;;;;;;;4919897;29;20055;-85
2023/08/19 14:49:25;;;;;;;7.13;6.15;;;;;;;;;;4913051;29;20060;-87
2023/08/19 14:51:53;;;;;;;5.65;5.00;;;;;;;;;;4935235;29;20070;-85
2023/08/19 14:54:21;;;;;;;11.05;5.82;;;;;;;;;;4930756;29;20040;-85
2023/08/19 14:56:48;;;;;;;5.68;5.07;;;;;;;;;;4919514;29;20167;-85
2023/08/19 14:59:15;;;;;;;14.40;5.70;;;;;;;;;;4916537;29;20055;-85
2023/08/19 15:01:43;;;;;;;9.23;5.15;;;;;;;;;;4931188;29;20054;-85
2023/08/19 15:04:11;;;;;;;7.10;5.18;;;;;;;;;;4926128;29;20047;-85
2023/08/19 15:06:38;;;;;;;8.95;4.97;;;;;;;;;;4934409;29;20129;-85
2023/08/19 15:09:07;;;;;;;6.00;5.40;;;;;;;;;;4899433;29;20206;-85
2023/08/19 15:11:39;;;;;;;6.15;5.55;;;;;;;;;;4910666;29;20543;-85